createdAt,value
2023-02-11T00:08:52.722Z,634.00
2023-02-11T00:09:54.076Z,635.00
2023-02-11T00:10:52.607Z,635.00
2023-02-11T00:11:52.610Z,638.00
2023-02-11T00:12:53.568Z,638.00
2023-02-11T00:13:52.654Z,638.00
2023-02-11T00:14:52.620Z,637.00
2023-02-11T00:15:52.761Z,634.00
2023-02-11T00:16:52.824Z,630.00
2023-02-11T00:17:52.836Z,630.00
2023-02-11T00:18:53.792Z,630.00
2023-02-11T00:19:52.848Z,631.00
2023-02-11T00:20:52.874Z,631.00
2023-02-11T00:21:52.888Z,630.00
2023-02-11T00:22:52.871Z,631.00
2023-02-11T00:23:52.944Z,630.00
2023-02-11T00:24:52.968Z,628.00
2023-02-11T00:25:54.017Z,628.00
2023-02-11T00:28:12.107Z,640.00
2023-02-11T00:29:12.202Z,637.00
2023-02-11T00:30:12.196Z,637.00
2023-02-11T00:31:11.914Z,634.00
2023-02-11T00:32:11.798Z,637.00
2023-02-11T00:33:11.796Z,638.00
2023-02-11T00:34:11.845Z,639.00
2023-02-11T00:35:11.809Z,639.00
2023-02-11T00:36:11.904Z,636.00
2023-02-11T00:37:11.793Z,636.00
2023-02-11T00:38:11.722Z,635.00
2023-02-11T00:39:11.682Z,636.00
2023-02-11T00:40:11.795Z,637.00
2023-02-11T00:41:11.728Z,638.00
2023-02-11T00:42:11.680Z,638.00
2023-02-11T00:43:11.748Z,639.00
2023-02-11T00:44:11.778Z,637.00
2023-02-11T00:46:32.316Z,630.00
2023-02-11T00:47:30.914Z,630.00
2023-02-11T00:48:30.976Z,629.00
2023-02-11T00:49:30.895Z,627.00
2023-02-11T00:50:30.602Z,628.00
2023-02-11T00:51:30.704Z,631.00
2023-02-11T00:52:30.602Z,630.00
2023-02-11T00:53:30.598Z,633.00
2023-02-11T00:54:30.584Z,632.00
2023-02-11T00:55:30.631Z,633.00
2023-02-11T00:56:30.540Z,635.00
2023-02-11T00:57:30.522Z,635.00
2023-02-11T00:58:30.609Z,636.00
2023-02-11T00:59:30.555Z,640.00
2023-02-11T01:00:30.489Z,638.00
2023-02-11T01:01:30.537Z,638.00
2023-02-11T01:02:30.448Z,639.00
2023-02-11T01:03:30.447Z,639.00
2023-02-11T01:04:30.552Z,641.00
2023-02-11T01:05:30.593Z,642.00
2023-02-11T01:06:30.653Z,643.00
2023-02-11T01:07:30.526Z,641.00
2023-02-11T01:08:30.672Z,639.00
2023-02-11T01:09:30.831Z,638.00
2023-02-11T01:10:30.637Z,641.00
2023-02-11T01:11:30.608Z,639.00
2023-02-11T01:12:30.803Z,638.00
2023-02-11T01:13:30.665Z,635.00
2023-02-11T01:14:30.657Z,635.00
2023-02-11T01:15:30.891Z,634.00
2023-02-11T01:16:30.788Z,630.00
2023-02-11T01:17:30.747Z,632.00
2023-02-11T01:18:30.750Z,630.00
2023-02-11T01:19:30.840Z,630.00
2023-02-11T01:20:30.786Z,629.00
2023-02-11T01:21:30.881Z,628.00
2023-02-11T01:22:30.843Z,629.00
2023-02-11T01:23:30.858Z,625.00
2023-02-11T01:24:30.916Z,625.00
2023-02-11T01:26:50.365Z,614.00
2023-02-11T01:27:50.574Z,617.00
2023-02-11T01:28:50.269Z,618.00
2023-02-11T01:29:50.135Z,617.00
2023-02-11T01:30:50.151Z,617.00
2023-02-11T01:31:50.120Z,623.00
2023-02-11T01:32:50.123Z,621.00
2023-02-11T01:33:50.086Z,621.00
2023-02-11T01:34:50.135Z,621.00
2023-02-11T01:35:50.539Z,622.00
2023-02-11T01:36:50.209Z,622.00
2023-02-11T01:37:50.154Z,622.00
2023-02-11T01:38:50.225Z,621.00
2023-02-11T01:39:50.322Z,622.00
2023-02-11T01:40:50.245Z,624.00
2023-02-11T01:41:50.289Z,621.00
2023-02-11T01:42:51.132Z,621.00
2023-02-11T01:43:50.363Z,620.00
2023-02-11T01:44:50.299Z,621.00
2023-02-11T01:45:50.601Z,621.00
2023-02-11T01:46:50.514Z,622.00
2023-02-11T01:47:50.376Z,623.00
2023-02-11T01:48:50.538Z,623.00
2023-02-11T01:49:50.437Z,622.00
2023-02-11T01:50:50.353Z,620.00
2023-02-11T01:51:50.355Z,619.00
2023-02-11T01:52:50.794Z,618.00
2023-02-11T01:53:50.504Z,618.00
2023-02-11T01:56:34.177Z,598.00
2023-02-11T01:57:34.078Z,598.00
2023-02-11T01:58:34.219Z,601.00
2023-02-11T01:59:34.417Z,600.00
2023-02-11T02:00:34.157Z,604.00
2023-02-11T02:09:48.922Z,607.00
2023-02-11T02:10:49.064Z,602.00
2023-02-11T02:14:08.064Z,601.00
2023-02-11T02:15:07.721Z,597.00
2023-02-11T02:16:09.837Z,597.00
2023-02-11T02:23:50.176Z,595.00
2023-02-11T02:24:49.772Z,593.00
2023-02-11T02:25:50.089Z,596.00
2023-02-11T02:26:49.764Z,596.00
2023-02-11T02:27:49.795Z,595.00
2023-02-11T02:28:49.882Z,594.00
2023-02-11T02:29:49.810Z,594.00
2023-02-11T02:30:49.949Z,595.00
2023-02-11T02:31:49.974Z,595.00
2023-02-11T02:32:49.932Z,595.00
2023-02-11T02:33:50.130Z,595.00
2023-02-11T02:34:50.033Z,595.00
2023-02-11T02:35:50.279Z,594.00
2023-02-11T02:36:50.165Z,592.00
2023-02-11T02:37:50.464Z,590.00
2023-02-11T02:38:50.192Z,594.00
2023-02-11T02:39:50.155Z,594.00
2023-02-11T02:40:50.222Z,592.00
2023-02-11T02:41:50.208Z,593.00
2023-02-11T02:42:50.206Z,595.00
2023-02-11T02:43:50.322Z,593.00
2023-02-11T02:44:50.211Z,593.00
2023-02-11T02:45:50.529Z,594.00
2023-02-11T02:51:34.808Z,603.00
2023-02-11T02:52:34.400Z,597.00
2023-02-11T02:53:34.452Z,596.00
2023-02-11T02:54:34.403Z,594.00
2023-02-11T02:55:34.456Z,595.00
2023-02-11T02:56:34.501Z,597.00
2023-02-11T02:58:53.364Z,599.00
2023-02-11T02:59:54.348Z,595.00
2023-02-11T03:00:53.320Z,593.00
2023-02-11T03:01:53.227Z,594.00
2023-02-11T03:02:54.274Z,596.00
2023-02-11T03:03:53.395Z,594.00
2023-02-11T03:04:53.356Z,593.00
2023-02-11T03:05:53.582Z,592.00
2023-02-11T03:06:53.320Z,590.00
2023-02-11T03:07:53.359Z,587.00
2023-02-11T03:08:53.456Z,587.00
2023-02-11T03:09:53.347Z,587.00
2023-02-11T03:10:53.372Z,587.00
2023-02-11T03:11:53.514Z,585.00
2023-02-11T03:12:53.489Z,585.00
2023-02-11T03:13:53.420Z,588.00
2023-02-11T03:14:53.550Z,587.00
2023-02-11T03:15:53.881Z,589.00
2023-02-11T03:16:53.600Z,591.00
2023-02-11T03:17:53.628Z,588.00
2023-02-11T03:18:53.652Z,589.00
2023-02-11T03:31:31.649Z,585.00
2023-02-11T03:32:31.508Z,581.00
2023-02-11T03:38:40.372Z,578.00
2023-02-11T03:39:40.120Z,580.00
2023-02-11T03:40:40.450Z,582.00
2023-02-11T03:41:40.097Z,583.00
2023-02-11T03:42:40.499Z,582.00
2023-02-11T03:44:59.190Z,584.00
2023-02-11T03:45:59.502Z,587.00
2023-02-11T03:46:59.099Z,586.00
2023-02-11T03:47:58.995Z,581.00
2023-02-11T03:56:07.652Z,584.00
2023-02-11T03:57:07.355Z,584.00
2023-02-11T03:58:07.518Z,585.00
2023-02-11T03:59:07.473Z,587.00
2023-02-11T04:00:07.847Z,587.00
2023-02-11T04:01:08.327Z,588.00
2023-02-11T04:02:07.310Z,587.00
2023-02-11T04:03:07.366Z,586.00
2023-02-11T04:04:07.359Z,587.00
2023-02-11T04:05:07.487Z,586.00
2023-02-11T04:06:07.471Z,587.00
2023-02-11T04:07:07.527Z,587.00
2023-02-11T04:09:26.537Z,581.00
2023-02-11T04:10:27.027Z,582.00
2023-02-11T04:11:26.504Z,581.00
2023-02-11T04:12:27.558Z,583.00
2023-02-11T04:13:26.496Z,580.00
2023-02-11T04:14:26.371Z,578.00
2023-02-11T04:15:26.421Z,578.00
2023-02-11T04:16:26.452Z,576.00
2023-02-11T04:17:26.418Z,577.00
2023-02-11T04:18:26.387Z,579.00
2023-02-11T04:21:38.233Z,587.00
2023-02-11T04:22:38.331Z,587.00
2023-02-11T04:23:38.196Z,585.00
2023-02-11T04:24:38.088Z,585.00
2023-02-11T04:25:38.162Z,586.00
2023-02-11T04:26:38.378Z,585.00
2023-02-11T04:27:39.338Z,587.00
2023-02-11T04:28:38.363Z,588.00
2023-02-11T04:29:38.321Z,590.00
2023-02-11T04:30:38.389Z,592.00
2023-02-11T04:31:38.564Z,591.00
2023-02-11T04:32:38.452Z,592.00
2023-02-11T04:33:38.537Z,593.00
2023-02-11T04:34:38.539Z,593.00
2023-02-11T04:35:38.530Z,595.00
2023-02-11T04:40:25.022Z,587.00
2023-02-11T04:42:42.995Z,592.00
2023-02-11T04:43:44.086Z,583.00
2023-02-11T04:44:42.641Z,586.00
2023-02-11T04:45:42.511Z,586.00
2023-02-11T04:46:42.477Z,587.00
2023-02-11T04:47:42.270Z,589.00
2023-02-11T04:48:42.327Z,589.00
2023-02-11T04:49:42.261Z,586.00
2023-02-11T04:50:42.277Z,586.00
2023-02-11T04:51:42.342Z,586.00
2023-02-11T04:52:42.348Z,586.00
2023-02-11T04:53:42.258Z,586.00
2023-02-11T04:54:42.440Z,585.00
2023-02-11T04:55:42.431Z,585.00
2023-02-11T04:56:42.429Z,585.00
2023-02-11T04:57:42.418Z,584.00
2023-02-11T05:06:33.692Z,582.00
2023-02-11T05:11:28.181Z,578.00
2023-02-11T05:13:44.794Z,581.00
2023-02-11T05:14:44.597Z,581.00
2023-02-11T05:15:44.720Z,583.00
2023-02-11T05:16:44.485Z,582.00
2023-02-11T05:19:03.372Z,579.00
2023-02-11T05:20:03.890Z,578.00
2023-02-11T05:21:03.145Z,579.00
2023-02-11T05:22:03.802Z,579.00
2023-02-11T05:23:03.126Z,577.00
2023-02-11T05:24:03.132Z,575.00
2023-02-11T05:25:03.183Z,574.00
2023-02-11T05:26:03.185Z,574.00
2023-02-11T05:27:03.135Z,574.00
2023-02-11T05:28:03.128Z,575.00
2023-02-11T05:29:03.177Z,575.00
2023-02-11T06:04:00.413Z,588.00
2023-02-11T06:05:00.138Z,584.00
2023-02-11T07:17:00.692Z,560.00
2023-02-11T07:18:00.990Z,563.00
2023-02-11T07:18:59.871Z,562.00
2023-02-11T07:20:00.574Z,560.00
2023-02-11T07:21:00.056Z,556.00
2023-02-11T07:21:59.929Z,556.00
2023-02-11T07:22:59.701Z,555.00
2023-02-11T07:23:59.822Z,554.00
2023-02-11T07:24:59.804Z,553.00
2023-02-11T07:25:59.875Z,552.00
2023-02-11T07:27:00.086Z,552.00
2023-02-11T07:28:00.095Z,551.00
2023-02-11T07:29:01.080Z,551.00
2023-02-11T07:30:00.183Z,551.00
2023-02-11T07:31:00.209Z,551.00
2023-02-11T07:32:00.276Z,550.00
2023-02-11T07:33:00.092Z,550.00
2023-02-11T07:34:00.246Z,550.00
2023-02-11T07:35:00.327Z,548.00
2023-02-11T07:37:00.372Z,546.00
2023-02-11T07:38:00.429Z,548.00
2023-02-11T07:39:00.866Z,549.00
2023-02-11T07:40:00.190Z,550.00
2023-02-11T07:43:03.273Z,567.00
2023-02-11T08:07:41.140Z,545.00
2023-02-11T08:08:41.036Z,543.00
2023-02-11T08:09:41.494Z,544.00
2023-02-11T08:10:40.884Z,544.00
2023-02-11T08:11:41.062Z,547.00
2023-02-11T08:12:40.989Z,546.00
2023-02-11T08:13:41.133Z,547.00
2023-02-11T08:14:42.079Z,546.00
2023-02-11T08:17:00.324Z,554.00
2023-02-11T08:18:00.222Z,548.00
2023-02-11T08:19:00.447Z,548.00
2023-02-11T08:20:00.240Z,548.00
2023-02-11T08:21:00.289Z,548.00
2023-02-11T08:22:00.126Z,548.00
2023-02-11T08:23:00.173Z,546.00
2023-02-11T08:24:01.543Z,547.00
2023-02-11T08:25:00.203Z,549.00
2023-02-11T08:26:00.188Z,549.00
2023-02-11T08:27:00.345Z,548.00
2023-02-11T08:28:00.523Z,549.00
2023-02-11T08:29:00.336Z,549.00
2023-02-11T08:30:00.383Z,551.00
2023-02-11T08:31:00.469Z,551.00
2023-02-11T08:32:00.347Z,552.00
2023-02-11T08:33:00.394Z,551.00
2023-02-11T08:34:00.372Z,551.00
2023-02-11T08:35:00.390Z,550.00
2023-02-11T08:36:00.568Z,548.00
2023-02-11T08:37:00.628Z,548.00
2023-02-11T08:38:00.457Z,549.00
2023-02-11T08:42:09.141Z,545.00
2023-02-11T08:43:08.950Z,544.00
2023-02-11T08:44:09.205Z,545.00
2023-02-11T08:45:08.739Z,547.00
2023-02-11T08:46:08.926Z,547.00
2023-02-11T08:47:08.946Z,548.00
2023-02-11T08:48:08.984Z,549.00
2023-02-11T08:49:08.975Z,548.00
2023-02-11T08:50:08.968Z,548.00
2023-02-11T08:51:09.154Z,548.00
2023-02-11T08:52:09.137Z,546.00
2023-02-11T08:53:09.101Z,546.00
2023-02-11T08:54:09.193Z,546.00
2023-02-11T08:55:09.176Z,544.00
2023-02-11T08:56:10.326Z,545.00
2023-02-11T08:57:09.254Z,546.00
2023-02-11T08:58:09.309Z,548.00
2023-02-11T08:59:09.405Z,549.00
2023-02-11T09:00:09.276Z,549.00
2023-02-11T09:01:09.365Z,550.00
2023-02-11T09:02:09.522Z,549.00
2023-02-11T09:03:09.441Z,551.00
2023-02-11T09:04:09.452Z,550.00
2023-02-11T09:05:09.373Z,546.00
2023-02-11T09:06:09.474Z,545.00
2023-02-11T09:07:09.434Z,543.00
2023-02-11T09:08:09.543Z,543.00
2023-02-11T09:09:09.428Z,542.00
2023-02-11T09:10:09.703Z,542.00
2023-02-11T09:11:09.644Z,540.00
2023-02-11T09:12:09.740Z,541.00
2023-02-11T09:13:09.743Z,542.00
2023-02-11T09:28:16.518Z,539.00
2023-02-11T09:29:16.450Z,541.00
2023-02-11T09:30:16.431Z,541.00
2023-02-11T09:31:16.111Z,541.00
2023-02-11T09:32:16.058Z,542.00
2023-02-11T10:22:18.257Z,533.00
2023-02-11T10:23:18.032Z,537.00
2023-02-11T10:24:17.872Z,537.00
2023-02-11T10:25:19.027Z,535.00
2023-02-11T10:27:36.895Z,536.00
2023-02-11T10:28:37.038Z,530.00
2023-02-11T10:29:36.664Z,528.00
2023-02-11T10:30:36.785Z,528.00
2023-02-11T10:31:36.746Z,528.00
2023-02-11T10:32:36.625Z,533.00
2023-02-11T10:33:36.525Z,530.00
2023-02-11T10:34:36.571Z,530.00
2023-02-11T10:35:36.665Z,529.00
2023-02-11T10:36:36.600Z,528.00
2023-02-11T10:41:57.901Z,524.00
2023-02-11T10:42:57.977Z,527.00
2023-02-11T10:43:57.920Z,528.00
2023-02-11T10:44:57.729Z,528.00
2023-02-11T10:45:57.839Z,529.00
2023-02-11T10:46:58.012Z,532.00
2023-02-11T10:47:57.864Z,531.00
2023-02-11T10:48:57.802Z,531.00
2023-02-11T10:49:57.917Z,531.00
2023-02-11T10:52:17.381Z,527.00
2023-02-11T10:53:17.297Z,521.00
2023-02-11T10:54:17.115Z,525.00
2023-02-11T11:39:19.119Z,528.00
2023-02-11T11:40:19.315Z,526.00
2023-02-11T11:41:18.531Z,524.00
2023-02-11T11:42:18.457Z,520.00
2023-02-11T11:43:19.301Z,516.00
2023-02-11T11:44:18.516Z,517.00
2023-02-11T11:45:19.390Z,516.00
2023-02-11T11:46:18.688Z,519.00
2023-02-11T11:47:18.643Z,520.00
2023-02-11T11:48:18.600Z,521.00
2023-02-11T11:49:19.000Z,521.00
2023-02-11T11:50:21.046Z,523.00
2023-02-11T11:51:18.917Z,526.00
2023-02-11T11:52:18.967Z,526.00
2023-02-11T12:02:25.924Z,524.00
2023-02-11T12:13:24.645Z,521.00
2023-02-11T12:14:09.691Z,520.00
2023-02-11T12:15:10.236Z,518.00
2023-02-11T12:16:09.483Z,518.00
2023-02-11T12:17:09.366Z,518.00
2023-02-11T12:18:09.306Z,518.00
2023-02-11T12:22:49.052Z,512.00
2023-02-11T12:24:48.750Z,512.00
2023-02-11T12:25:48.811Z,510.00
2023-02-11T12:26:48.765Z,509.00
2023-02-11T12:29:08.249Z,516.00
2023-02-11T12:31:28.109Z,520.00
2023-02-11T12:32:27.664Z,515.00
2023-02-11T12:33:27.370Z,515.00
2023-02-11T12:34:27.050Z,512.00
2023-02-11T12:35:27.379Z,511.00
2023-02-11T12:36:27.128Z,510.00
2023-02-11T12:37:27.329Z,512.00
2023-02-11T12:38:27.133Z,512.00
2023-02-11T12:39:28.447Z,513.00
2023-02-11T12:40:27.317Z,512.00
2023-02-11T12:41:27.269Z,511.00
2023-02-11T12:42:28.365Z,514.00
2023-02-11T12:43:27.339Z,516.00
2023-02-11T12:44:28.346Z,519.00
2023-02-11T12:45:27.496Z,519.00
2023-02-11T12:46:27.386Z,518.00
2023-02-11T12:47:27.487Z,519.00
2023-02-11T12:48:27.575Z,518.00
2023-02-11T12:49:27.504Z,517.00
2023-02-11T12:50:27.723Z,516.00
2023-02-11T12:51:27.533Z,517.00
2023-02-11T12:52:28.527Z,514.00
2023-02-11T12:53:27.529Z,514.00
2023-02-11T12:54:27.660Z,513.00
2023-02-11T12:55:28.552Z,510.00
2023-02-11T12:56:27.690Z,509.00
2023-02-11T12:57:27.633Z,509.00
2023-02-11T12:58:42.865Z,511.00
2023-02-11T12:59:28.608Z,515.00
2023-02-11T13:00:27.656Z,511.00
2023-02-11T13:01:28.861Z,509.00
2023-02-11T13:02:27.618Z,510.00
2023-02-11T13:03:27.597Z,511.00
2023-02-11T13:04:27.513Z,509.00
2023-02-11T13:05:27.581Z,511.00
2023-02-11T13:06:27.594Z,510.00
2023-02-11T13:07:27.599Z,511.00
2023-02-11T13:08:27.598Z,509.00
2023-02-11T13:09:27.531Z,509.00
2023-02-11T13:10:27.562Z,511.00
2023-02-11T13:11:27.583Z,509.00
2023-02-11T13:12:27.604Z,509.00
2023-02-11T13:13:27.541Z,509.00
2023-02-11T13:14:27.703Z,507.00
2023-02-11T13:15:27.558Z,506.00
2023-02-11T13:16:27.477Z,506.00
2023-02-11T13:17:27.577Z,505.00
2023-02-11T13:18:28.506Z,502.00
2023-02-11T13:19:27.526Z,503.00
2023-02-11T13:20:27.656Z,504.00
2023-02-11T13:21:27.599Z,505.00
2023-02-11T13:22:27.758Z,507.00
2023-02-11T13:23:28.925Z,507.00
2023-02-11T13:24:27.618Z,510.00
2023-02-11T13:25:27.621Z,510.00
2023-02-11T13:26:27.642Z,511.00
2023-02-11T13:27:27.638Z,509.00
2023-02-11T13:28:27.702Z,508.00
2023-02-11T13:29:27.595Z,511.00
2023-02-11T13:30:27.663Z,514.00
2023-02-11T13:31:27.691Z,514.00
2023-02-11T13:32:27.603Z,514.00
2023-02-11T13:33:27.690Z,514.00
2023-02-11T13:34:27.500Z,514.00
2023-02-11T13:35:27.713Z,511.00
2023-02-11T13:36:27.617Z,509.00
2023-02-11T13:37:27.650Z,508.00
2023-02-11T13:38:27.614Z,511.00
2023-02-11T13:39:27.636Z,513.00
2023-02-11T13:40:27.518Z,513.00
2023-02-11T13:41:27.544Z,514.00
2023-02-11T13:42:28.562Z,513.00
2023-02-11T13:44:27.522Z,515.00
2023-02-11T13:45:27.552Z,513.00
2023-02-11T13:46:27.734Z,513.00
2023-02-11T13:47:27.544Z,511.00
2023-02-11T13:48:28.502Z,510.00
2023-02-11T14:00:00.880Z,513.00
2023-02-11T14:01:00.925Z,513.00
2023-02-11T14:02:00.288Z,514.00
2023-02-11T14:04:20.424Z,513.00
2023-02-11T14:05:19.607Z,509.00
2023-02-11T14:07:38.694Z,505.00
2023-02-11T14:09:38.464Z,501.00
2023-02-11T14:10:38.263Z,504.00
2023-02-11T14:11:38.244Z,504.00
2023-02-11T14:12:38.291Z,504.00
2023-02-11T14:13:38.356Z,505.00
2023-02-11T14:14:38.170Z,506.00
2023-02-11T14:16:57.372Z,508.00
2023-02-11T14:17:57.505Z,508.00
2023-02-11T14:18:57.232Z,510.00
2023-02-11T14:19:57.315Z,511.00
2023-02-11T14:20:57.131Z,512.00
2023-02-11T14:21:57.126Z,512.00
2023-02-11T14:22:57.131Z,513.00
2023-02-11T14:23:57.136Z,513.00
2023-02-11T14:24:57.120Z,515.00
2023-02-11T14:25:57.102Z,513.00
2023-02-11T14:26:57.103Z,512.00
2023-02-11T14:27:57.151Z,511.00
2023-02-11T14:28:57.076Z,509.00
2023-02-11T14:29:57.028Z,507.00
2023-02-11T14:30:57.265Z,507.00
2023-02-11T14:31:57.131Z,504.00
2023-02-11T14:32:57.073Z,504.00
2023-02-11T14:33:57.208Z,505.00
2023-02-11T14:34:57.085Z,504.00
2023-02-11T14:56:11.126Z,508.00
2023-02-11T15:20:59.342Z,506.00
2023-02-11T15:21:59.366Z,504.00
2023-02-11T15:22:59.443Z,504.00
2023-02-11T15:23:59.010Z,505.00
2023-02-11T15:24:59.547Z,506.00
2023-02-11T15:28:37.294Z,506.00
2023-02-11T15:29:37.353Z,502.00
2023-02-11T15:43:34.140Z,512.00
2023-02-11T15:44:34.506Z,505.00
2023-02-11T15:45:34.276Z,506.00
2023-02-11T15:46:34.160Z,505.00
2023-02-11T15:47:34.090Z,506.00
2023-02-11T15:48:34.034Z,509.00
2023-02-11T15:49:34.248Z,509.00
2023-02-11T15:50:34.110Z,509.00
2023-02-11T15:51:34.429Z,508.00
2023-02-11T15:52:34.239Z,509.00
2023-02-11T15:53:34.244Z,509.00
2023-02-11T15:54:34.553Z,510.00
2023-02-11T15:55:34.282Z,512.00
2023-02-11T15:56:34.532Z,515.00
2023-02-11T16:05:03.063Z,501.00
2023-02-11T16:06:03.073Z,501.00
2023-02-11T16:07:03.561Z,501.00
2023-02-11T16:09:22.396Z,507.00
2023-02-11T16:10:23.042Z,507.00
2023-02-11T16:11:23.410Z,509.00
2023-02-11T16:12:21.873Z,512.00
2023-02-11T16:13:21.749Z,512.00
2023-02-11T16:14:21.727Z,511.00
2023-02-11T16:15:21.638Z,509.00
2023-02-11T16:16:21.699Z,510.00
2023-02-11T16:17:21.899Z,509.00
2023-02-11T16:18:26.431Z,509.00
2023-02-11T16:19:25.337Z,508.00
2023-02-11T16:20:21.694Z,510.00
2023-02-11T16:21:21.650Z,513.00
2023-02-11T16:22:22.627Z,511.00
2023-02-11T16:23:21.695Z,511.00
2023-02-11T16:24:21.598Z,511.00
2023-02-11T16:25:22.722Z,513.00
2023-02-11T17:43:18.335Z,528.00
2023-02-11T17:44:18.399Z,528.00
2023-02-11T17:45:20.364Z,528.00
2023-02-11T17:46:18.693Z,527.00
2023-02-11T17:47:18.297Z,526.00
2023-02-11T17:48:18.273Z,529.00
2023-02-11T17:49:18.242Z,529.00
2023-02-11T17:50:18.200Z,530.00
2023-02-11T17:51:18.255Z,530.00
2023-02-11T17:52:19.321Z,532.00
2023-02-11T17:53:18.212Z,530.00
2023-02-11T17:54:18.168Z,530.00
2023-02-11T17:55:18.289Z,531.00
2023-02-11T17:56:18.251Z,533.00
2023-02-11T17:57:18.230Z,533.00
2023-02-11T17:58:18.197Z,533.00
2023-02-11T17:59:18.108Z,532.00
2023-02-11T18:00:18.147Z,531.00
2023-02-11T18:01:19.248Z,528.00
2023-02-11T18:02:18.154Z,526.00
2023-02-11T18:03:18.227Z,525.00
2023-02-11T18:04:18.353Z,525.00
2023-02-11T18:05:18.113Z,525.00
2023-02-11T18:06:18.140Z,526.00
2023-02-11T18:07:18.274Z,526.00
2023-02-11T18:08:19.098Z,526.00
2023-02-11T18:21:21.117Z,540.00
2023-02-11T19:22:17.079Z,535.00
2023-02-11T19:26:27.320Z,552.00
2023-02-11T19:27:27.085Z,546.00
2023-02-11T19:28:26.847Z,541.00
2023-02-11T19:29:27.677Z,537.00
2023-02-11T19:30:26.676Z,538.00
2023-02-11T19:31:26.759Z,534.00
2023-02-11T19:32:26.768Z,531.00
2023-02-11T19:37:36.499Z,539.00
2023-02-11T20:09:56.264Z,551.00
2023-02-11T20:42:33.791Z,549.00
2023-02-11T20:43:34.778Z,546.00
2023-02-11T20:44:34.051Z,546.00
2023-02-11T20:45:33.618Z,547.00
2023-02-11T20:46:34.712Z,548.00
2023-02-11T20:47:33.589Z,550.00
2023-02-11T20:48:33.610Z,549.00
2023-02-11T20:49:33.681Z,549.00
2023-02-11T20:50:33.666Z,549.00
2023-02-11T20:51:33.688Z,551.00
2023-02-11T20:52:33.759Z,553.00
2023-02-11T20:54:53.073Z,559.00
2023-02-11T20:55:53.345Z,556.00
2023-02-11T20:56:53.141Z,556.00
2023-02-11T20:57:52.774Z,555.00
2023-02-11T20:58:52.777Z,557.00
2023-02-11T20:59:53.612Z,555.00
2023-02-11T21:00:53.682Z,555.00
2023-02-11T21:01:53.772Z,557.00
2023-02-11T21:13:17.179Z,556.00
2023-02-11T21:14:17.540Z,557.00
2023-02-11T21:15:18.319Z,559.00
2023-02-11T21:16:17.131Z,558.00
2023-02-11T21:17:17.215Z,561.00
2023-02-11T21:18:17.179Z,559.00
2023-02-11T21:19:18.225Z,558.00
2023-02-11T21:20:17.287Z,559.00
2023-02-11T21:21:17.305Z,559.00
2023-02-11T21:22:17.242Z,558.00
2023-02-11T21:23:17.273Z,560.00
2023-02-11T21:24:17.283Z,562.00
2023-02-11T21:25:17.353Z,561.00
2023-02-11T21:26:17.422Z,561.00
2023-02-11T21:27:18.484Z,562.00
2023-02-11T21:28:17.511Z,567.00
2023-02-11T21:29:17.536Z,566.00
2023-02-11T21:30:17.613Z,564.00
2023-02-11T21:31:17.689Z,560.00
2023-02-11T21:32:17.640Z,550.00
2023-02-11T21:33:17.699Z,551.00
2023-02-11T21:34:17.633Z,544.00
2023-02-11T21:35:17.838Z,542.00
2023-02-11T21:36:17.757Z,540.00
2023-02-11T21:49:20.737Z,539.00
2023-02-11T21:50:21.482Z,540.00
2023-02-11T21:52:39.430Z,549.00
2023-02-11T21:53:39.491Z,546.00
2023-02-11T21:54:40.245Z,547.00
2023-02-11T21:55:40.230Z,547.00
2023-02-11T21:56:39.241Z,550.00
2023-02-11T21:57:39.160Z,551.00
2023-02-11T21:58:39.065Z,550.00
2023-02-11T21:59:39.023Z,552.00
2023-02-11T22:00:39.136Z,551.00
2023-02-11T22:01:39.095Z,552.00
2023-02-11T22:02:39.165Z,554.00
2023-02-11T22:03:39.060Z,554.00
2023-02-11T22:05:58.441Z,551.00
2023-02-11T22:06:58.353Z,551.00
2023-02-11T22:07:58.339Z,551.00
2023-02-11T22:08:57.935Z,553.00
2023-02-11T22:09:57.927Z,555.00
2023-02-11T22:10:58.016Z,556.00
2023-02-11T22:11:58.188Z,557.00
2023-02-11T22:12:58.242Z,556.00
2023-02-11T22:13:58.142Z,554.00
2023-02-11T22:16:55.141Z,553.00
2023-02-11T22:17:55.119Z,552.00
2023-02-11T22:18:55.286Z,552.00
2023-02-11T22:19:55.059Z,555.00
2023-02-11T22:20:54.949Z,558.00
2023-02-11T22:21:55.165Z,558.00
2023-02-11T22:22:55.070Z,555.00
2023-02-11T22:23:55.128Z,557.00
2023-02-11T22:24:55.155Z,560.00
2023-02-11T22:25:55.510Z,559.00
2023-02-11T22:26:55.384Z,560.00
2023-02-11T22:27:55.301Z,562.00
2023-02-11T22:32:55.552Z,564.00
2023-02-11T22:33:55.579Z,563.00
2023-02-11T22:34:55.629Z,563.00
2023-02-11T22:35:55.991Z,563.00
2023-02-11T22:36:55.877Z,564.00
2023-02-11T22:37:55.786Z,565.00
2023-02-11T22:38:55.829Z,562.00
2023-02-11T22:39:58.355Z,562.00
2023-02-11T22:40:56.884Z,560.00
2023-02-11T22:41:55.855Z,561.00
2023-02-11T22:42:55.706Z,559.00
2023-02-11T22:43:55.798Z,556.00
2023-02-11T22:44:55.686Z,557.00
2023-02-11T22:45:56.098Z,557.00
2023-02-11T22:46:55.844Z,555.00
2023-02-11T22:47:55.692Z,555.00
2023-02-11T22:48:55.669Z,553.00
2023-02-11T22:49:55.661Z,551.00
2023-02-11T22:50:55.674Z,551.00
2023-02-11T22:51:55.640Z,554.00
2023-02-11T22:52:55.672Z,552.00
2023-02-11T22:53:55.667Z,551.00
2023-02-11T22:54:55.658Z,549.00
2023-02-11T22:55:56.033Z,549.00
2023-02-11T22:56:55.622Z,549.00
2023-02-11T22:57:55.717Z,550.00
2023-02-11T22:58:55.729Z,551.00
2023-02-11T22:59:55.699Z,550.00
2023-02-11T23:00:55.615Z,552.00
2023-02-11T23:01:55.709Z,552.00
2023-02-11T23:02:55.665Z,550.00
2023-02-11T23:03:55.552Z,548.00
2023-02-11T23:05:55.838Z,546.00
2023-02-11T23:06:55.560Z,547.00
2023-02-11T23:07:55.565Z,549.00
2023-02-11T23:08:55.599Z,550.00
2023-02-11T23:09:56.686Z,551.00
2023-02-11T23:10:55.583Z,551.00
2023-02-11T23:11:55.515Z,551.00
2023-02-11T23:12:55.687Z,553.00
2023-02-11T23:13:55.530Z,555.00
2023-02-11T23:14:55.612Z,557.00
2023-02-11T23:15:55.890Z,557.00
2023-02-11T23:16:55.866Z,558.00
2023-02-11T23:17:55.733Z,558.00
2023-02-11T23:18:55.741Z,557.00
2023-02-11T23:19:55.668Z,560.00
2023-02-11T23:20:55.863Z,558.00
2023-02-11T23:21:55.794Z,559.00
2023-02-11T23:22:55.875Z,559.00
2023-02-11T23:23:56.826Z,558.00
2023-02-11T23:24:55.869Z,555.00
2023-02-11T23:25:56.127Z,554.00
2023-02-11T23:26:55.976Z,556.00
2023-02-11T23:27:56.091Z,559.00
2023-02-11T23:28:55.937Z,559.00
2023-02-11T23:29:56.108Z,557.00
2023-02-11T23:30:56.029Z,558.00
2023-02-11T23:31:58.731Z,557.00
2023-02-11T23:32:56.145Z,554.00
2023-02-11T23:33:56.026Z,554.00
2023-02-11T23:34:56.013Z,553.00
2023-02-11T23:35:56.269Z,548.00
2023-02-11T23:36:55.987Z,552.00
2023-02-11T23:37:56.060Z,552.00
2023-02-11T23:38:56.019Z,551.00
2023-02-11T23:54:44.190Z,546.00
2023-02-11T23:55:43.490Z,545.00
2023-02-11T23:56:43.571Z,545.00
2023-02-11T23:57:43.940Z,546.00
2023-02-11T23:58:43.929Z,546.00
2023-02-11T23:59:43.523Z,546.00
